sensor_id;sensor_type;location;lat;lon;timestamp;temperature;humidity
58983;DHT22;44771;49.982;8.560;2023-11-21T00:02:00;8.20;99.90
58983;DHT22;44771;49.982;8.560;2023-11-21T00:07:02;8.20;99.90
58983;DHT22;44771;49.982;8.560;2023-11-21T00:12:04;8.20;99.90
58983;DHT22;44771;49.982;8.560;2023-11-21T00:17:07;8.10;99.90
58983;DHT22;44771;49.982;8.560;2023-11-21T00:22:09;8.20;99.90
58983;DHT22;44771;49.982;8.560;2023-11-21T00:27:11;8.20;99.90
58983;DHT22;44771;49.982;8.560;2023-11-21T00:32:14;8.10;99.90
58983;DHT22;44771;49.982;8.560;2023-11-21T00:37:16;8.10;99.90
58983;DHT22;44771;49.982;8.560;2023-11-21T00:42:18;8.10;99.90
58983;DHT22;44771;49.982;8.560;2023-11-21T00:47:21;8.10;99.90
58983;DHT22;44771;49.982;8.560;2023-11-21T00:52:23;8.10;99.90
58983;DHT22;44771;49.982;8.560;2023-11-21T00:57:25;8.10;99.90
58983;DHT22;44771;49.982;8.560;2023-11-21T01:02:28;8.10;99.90
58983;DHT22;44771;49.982;8.560;2023-11-21T01:07:29;8.10;99.90
58983;DHT22;44771;49.982;8.560;2023-11-21T01:12:31;8.10;99.90
58983;DHT22;44771;49.982;8.560;2023-11-21T01:17:35;8.10;99.90
58983;DHT22;44771;49.982;8.560;2023-11-21T01:22:37;8.10;99.90
58983;DHT22;44771;49.982;8.560;2023-11-21T01:27:39;8.10;99.90
58983;DHT22;44771;49.982;8.560;2023-11-21T01:32:42;8.10;99.90
58983;DHT22;44771;49.982;8.560;2023-11-21T01:37:44;8.20;99.90
58983;DHT22;44771;49.982;8.560;2023-11-21T01:42:45;8.10;99.90
58983;DHT22;44771;49.982;8.560;2023-11-21T01:47:49;8.00;99.90
58983;DHT22;44771;49.982;8.560;2023-11-21T01:52:51;8.10;99.90
58983;DHT22;44771;49.982;8.560;2023-11-21T01:57:54;8.20;99.90
58983;DHT22;44771;49.982;8.560;2023-11-21T02:02:58;8.10;99.90
58983;DHT22;44771;49.982;8.560;2023-11-21T02:07:59;8.30;99.90
58983;DHT22;44771;49.982;8.560;2023-11-21T02:13:01;8.20;99.90
58983;DHT22;44771;49.982;8.560;2023-11-21T02:18:05;8.20;99.90
58983;DHT22;44771;49.982;8.560;2023-11-21T02:23:08;8.10;99.90
58983;DHT22;44771;49.982;8.560;2023-11-21T02:28:10;8.10;99.90
58983;DHT22;44771;49.982;8.560;2023-11-21T02:33:12;8.10;99.90
58983;DHT22;44771;49.982;8.560;2023-11-21T02:38:15;8.10;99.90
58983;DHT22;44771;49.982;8.560;2023-11-21T02:43:20;8.00;99.90
58983;DHT22;44771;49.982;8.560;2023-11-21T02:48:22;8.00;99.90
58983;DHT22;44771;49.982;8.560;2023-11-21T02:53:25;8.00;99.90
58983;DHT22;44771;49.982;8.560;2023-11-21T02:58:27;7.90;99.90
58983;DHT22;44771;49.982;8.560;2023-11-21T03:03:28;8.00;99.90
58983;DHT22;44771;49.982;8.560;2023-11-21T03:08:32;8.00;99.90
58983;DHT22;44771;49.982;8.560;2023-11-21T03:13:33;8.00;99.90
58983;DHT22;44771;49.982;8.560;2023-11-21T03:18:35;7.90;99.90
58983;DHT22;44771;49.982;8.560;2023-11-21T03:23:38;8.00;99.90
58983;DHT22;44771;49.982;8.560;2023-11-21T03:28:40;8.00;99.90
58983;DHT22;44771;49.982;8.560;2023-11-21T03:33:42;8.00;99.90
58983;DHT22;44771;49.982;8.560;2023-11-21T03:38:48;8.00;99.90
58983;DHT22;44771;49.982;8.560;2023-11-21T03:43:50;8.10;99.90
58983;DHT22;44771;49.982;8.560;2023-11-21T03:48:51;8.10;99.90
58983;DHT22;44771;49.982;8.560;2023-11-21T03:53:54;8.00;99.90
58983;DHT22;44771;49.982;8.560;2023-11-21T03:58:56;8.00;99.90
58983;DHT22;44771;49.982;8.560;2023-11-21T04:03:58;8.00;99.90
58983;DHT22;44771;49.982;8.560;2023-11-21T04:09:01;8.00;99.90
58983;DHT22;44771;49.982;8.560;2023-11-21T04:14:03;8.00;99.90
58983;DHT22;44771;49.982;8.560;2023-11-21T04:19:05;8.00;99.90
58983;DHT22;44771;49.982;8.560;2023-11-21T04:24:08;8.00;99.90
58983;DHT22;44771;49.982;8.560;2023-11-21T04:29:10;8.00;99.90
58983;DHT22;44771;49.982;8.560;2023-11-21T04:34:12;7.90;99.90
58983;DHT22;44771;49.982;8.560;2023-11-21T04:39:15;7.90;99.90
58983;DHT22;44771;49.982;8.560;2023-11-21T04:44:17;7.90;99.90
58983;DHT22;44771;49.982;8.560;2023-11-21T04:49:19;7.90;99.90
58983;DHT22;44771;49.982;8.560;2023-11-21T04:54:22;7.90;99.90
58983;DHT22;44771;49.982;8.560;2023-11-21T04:59:27;7.90;99.90
58983;DHT22;44771;49.982;8.560;2023-11-21T05:04:29;7.90;99.90
58983;DHT22;44771;49.982;8.560;2023-11-21T05:09:35;7.80;99.90
58983;DHT22;44771;49.982;8.560;2023-11-21T05:14:37;7.80;99.90
58983;DHT22;44771;49.982;8.560;2023-11-21T05:19:39;7.80;99.90
58983;DHT22;44771;49.982;8.560;2023-11-21T05:24:42;7.80;99.90
58983;DHT22;44771;49.982;8.560;2023-11-21T05:29:43;7.80;99.90
58983;DHT22;44771;49.982;8.560;2023-11-21T05:34:45;7.80;99.90
58983;DHT22;44771;49.982;8.560;2023-11-21T05:39:48;7.70;99.90
58983;DHT22;44771;49.982;8.560;2023-11-21T05:44:50;7.70;99.90
58983;DHT22;44771;49.982;8.560;2023-11-21T05:49:52;7.70;99.90
58983;DHT22;44771;49.982;8.560;2023-11-21T05:54:55;7.70;99.90
58983;DHT22;44771;49.982;8.560;2023-11-21T05:59:57;7.70;99.90
58983;DHT22;44771;49.982;8.560;2023-11-21T06:04:59;7.70;99.90
58983;DHT22;44771;49.982;8.560;2023-11-21T06:10:02;7.70;99.90
58983;DHT22;44771;49.982;8.560;2023-11-21T06:15:05;7.70;99.90
58983;DHT22;44771;49.982;8.560;2023-11-21T06:20:09;7.70;99.90
58983;DHT22;44771;49.982;8.560;2023-11-21T06:25:13;7.70;99.90
58983;DHT22;44771;49.982;8.560;2023-11-21T06:30:15;7.80;99.90
58983;DHT22;44771;49.982;8.560;2023-11-21T06:35:18;7.80;99.90
58983;DHT22;44771;49.982;8.560;2023-11-21T06:40:21;7.80;99.90
58983;DHT22;44771;49.982;8.560;2023-11-21T06:45:23;7.90;99.90
58983;DHT22;44771;49.982;8.560;2023-11-21T06:50:26;7.80;99.90
58983;DHT22;44771;49.982;8.560;2023-11-21T06:55:30;7.80;99.90
58983;DHT22;44771;49.982;8.560;2023-11-21T07:00:31;7.80;99.90
58983;DHT22;44771;49.982;8.560;2023-11-21T07:05:33;7.90;99.90
58983;DHT22;44771;49.982;8.560;2023-11-21T07:10:37;7.90;99.90
58983;DHT22;44771;49.982;8.560;2023-11-21T07:15:38;7.90;99.90
58983;DHT22;44771;49.982;8.560;2023-11-21T07:20:42;7.90;99.90
58983;DHT22;44771;49.982;8.560;2023-11-21T07:25:48;7.90;99.90
58983;DHT22;44771;49.982;8.560;2023-11-21T07:30:50;7.90;99.90
58983;DHT22;44771;49.982;8.560;2023-11-21T07:35:52;7.90;99.90
58983;DHT22;44771;49.982;8.560;2023-11-21T07:40:55;8.00;99.90
58983;DHT22;44771;49.982;8.560;2023-11-21T07:45:56;7.90;99.90
58983;DHT22;44771;49.982;8.560;2023-11-21T07:50:58;7.90;99.90
58983;DHT22;44771;49.982;8.560;2023-11-21T07:56:05;7.90;99.90
58983;DHT22;44771;49.982;8.560;2023-11-21T08:01:07;8.00;99.90
58983;DHT22;44771;49.982;8.560;2023-11-21T08:06:08;8.10;99.90
58983;DHT22;44771;49.982;8.560;2023-11-21T08:11:12;8.20;99.90
58983;DHT22;44771;49.982;8.560;2023-11-21T08:16:14;8.50;99.90
58983;DHT22;44771;49.982;8.560;2023-11-21T08:21:16;8.60;99.90
58983;DHT22;44771;49.982;8.560;2023-11-21T08:26:19;8.70;99.90
58983;DHT22;44771;49.982;8.560;2023-11-21T08:31:24;8.70;99.90
58983;DHT22;44771;49.982;8.560;2023-11-21T08:36:26;8.70;99.90
58983;DHT22;44771;49.982;8.560;2023-11-21T08:41:29;8.70;99.90
58983;DHT22;44771;49.982;8.560;2023-11-21T08:46:31;8.60;99.90
58983;DHT22;44771;49.982;8.560;2023-11-21T08:51:33;8.50;99.90
58983;DHT22;44771;49.982;8.560;2023-11-21T08:56:38;8.40;99.90
58983;DHT22;44771;49.982;8.560;2023-11-21T09:01:40;8.30;99.90
58983;DHT22;44771;49.982;8.560;2023-11-21T09:06:42;8.20;99.90
58983;DHT22;44771;49.982;8.560;2023-11-21T09:11:45;8.20;99.90
58983;DHT22;44771;49.982;8.560;2023-11-21T09:16:47;8.20;99.90
58983;DHT22;44771;49.982;8.560;2023-11-21T09:21:48;8.20;99.90
58983;DHT22;44771;49.982;8.560;2023-11-21T09:26:52;8.30;99.90
58983;DHT22;44771;49.982;8.560;2023-11-21T09:31:53;8.40;99.90
58983;DHT22;44771;49.982;8.560;2023-11-21T09:36:55;8.40;99.90
58983;DHT22;44771;49.982;8.560;2023-11-21T09:42:04;8.50;99.90
58983;DHT22;44771;49.982;8.560;2023-11-21T09:47:07;8.70;99.90
58983;DHT22;44771;49.982;8.560;2023-11-21T09:52:09;8.70;99.90
58983;DHT22;44771;49.982;8.560;2023-11-21T09:57:19;8.80;99.90
58983;DHT22;44771;49.982;8.560;2023-11-21T10:02:22;8.90;99.90
58983;DHT22;44771;49.982;8.560;2023-11-21T10:07:27;8.90;99.90
58983;DHT22;44771;49.982;8.560;2023-11-21T10:12:32;9.10;99.90
58983;DHT22;44771;49.982;8.560;2023-11-21T10:17:36;9.20;99.90
58983;DHT22;44771;49.982;8.560;2023-11-21T10:22:41;9.30;99.90
58983;DHT22;44771;49.982;8.560;2023-11-21T10:27:47;9.30;99.90
58983;DHT22;44771;49.982;8.560;2023-11-21T10:32:48;9.30;99.90
58983;DHT22;44771;49.982;8.560;2023-11-21T10:38:00;9.20;99.90
58983;DHT22;44771;49.982;8.560;2023-11-21T10:43:07;9.10;99.90
58983;DHT22;44771;49.982;8.560;2023-11-21T10:48:12;8.90;99.90
58983;DHT22;44771;49.982;8.560;2023-11-21T10:53:14;8.70;99.90
58983;DHT22;44771;49.982;8.560;2023-11-21T10:58:18;8.80;99.90
58983;DHT22;44771;49.982;8.560;2023-11-21T11:03:20;9.30;99.90
58983;DHT22;44771;49.982;8.560;2023-11-21T11:08:22;9.70;99.90
58983;DHT22;44771;49.982;8.560;2023-11-21T11:13:25;10.00;99.90
58983;DHT22;44771;49.982;8.560;2023-11-21T11:18:27;10.30;99.90
58983;DHT22;44771;49.982;8.560;2023-11-21T11:23:43;10.60;99.90
58983;DHT22;44771;49.982;8.560;2023-11-21T11:28:57;10.90;99.90
58983;DHT22;44771;49.982;8.560;2023-11-21T11:34:08;11.20;99.90
58983;DHT22;44771;49.982;8.560;2023-11-21T11:39:27;11.10;99.90
58983;DHT22;44771;49.982;8.560;2023-11-21T11:44:51;11.20;99.90
58983;DHT22;44771;49.982;8.560;2023-11-21T11:50:05;11.00;99.90
58983;DHT22;44771;49.982;8.560;2023-11-21T11:55:09;10.90;99.90
58983;DHT22;44771;49.982;8.560;2023-11-21T12:00:17;10.70;99.90
58983;DHT22;44771;49.982;8.560;2023-11-21T12:05:21;10.60;99.90
58983;DHT22;44771;49.982;8.560;2023-11-21T12:10:24;10.60;99.90
58983;DHT22;44771;49.982;8.560;2023-11-21T12:15:27;10.60;99.90
58983;DHT22;44771;49.982;8.560;2023-11-21T12:20:30;10.60;99.90
58983;DHT22;44771;49.982;8.560;2023-11-21T12:25:32;10.50;99.90
58983;DHT22;44771;49.982;8.560;2023-11-21T12:30:36;10.60;99.90
58983;DHT22;44771;49.982;8.560;2023-11-21T12:35:38;10.40;99.90
58983;DHT22;44771;49.982;8.560;2023-11-21T12:46:06;10.50;99.90
58983;DHT22;44771;49.982;8.560;2023-11-21T12:51:09;10.50;99.90
58983;DHT22;44771;49.982;8.560;2023-11-21T12:56:12;10.50;99.90
58983;DHT22;44771;49.982;8.560;2023-11-21T13:01:15;10.60;99.90
58983;DHT22;44771;49.982;8.560;2023-11-21T13:06:18;10.60;99.90
58983;DHT22;44771;49.982;8.560;2023-11-21T13:11:20;10.60;99.90
58983;DHT22;44771;49.982;8.560;2023-11-21T13:16:24;10.50;99.90
58983;DHT22;44771;49.982;8.560;2023-11-21T13:21:26;10.60;99.90
58983;DHT22;44771;49.982;8.560;2023-11-21T13:26:30;10.50;99.90
58983;DHT22;44771;49.982;8.560;2023-11-21T13:31:34;10.40;99.90
58983;DHT22;44771;49.982;8.560;2023-11-21T13:36:36;10.30;99.90
58983;DHT22;44771;49.982;8.560;2023-11-21T13:41:38;10.20;99.90
58983;DHT22;44771;49.982;8.560;2023-11-21T13:46:42;10.10;99.90
58983;DHT22;44771;49.982;8.560;2023-11-21T13:51:44;10.10;99.90
58983;DHT22;44771;49.982;8.560;2023-11-21T13:56:46;9.90;99.90
58983;DHT22;44771;49.982;8.560;2023-11-21T14:01:53;10.00;99.90
58983;DHT22;44771;49.982;8.560;2023-11-21T14:06:55;9.90;99.90
58983;DHT22;44771;49.982;8.560;2023-11-21T14:11:57;9.90;99.90
58983;DHT22;44771;49.982;8.560;2023-11-21T14:17:01;9.90;99.90
58983;DHT22;44771;49.982;8.560;2023-11-21T14:22:03;9.90;99.90
58983;DHT22;44771;49.982;8.560;2023-11-21T14:27:05;9.90;99.90
58983;DHT22;44771;49.982;8.560;2023-11-21T14:32:08;9.70;99.90
58983;DHT22;44771;49.982;8.560;2023-11-21T14:37:10;9.60;99.90
58983;DHT22;44771;49.982;8.560;2023-11-21T14:42:12;9.50;99.90
58983;DHT22;44771;49.982;8.560;2023-11-21T14:47:15;9.50;99.90
58983;DHT22;44771;49.982;8.560;2023-11-21T14:52:18;9.30;99.90
58983;DHT22;44771;49.982;8.560;2023-11-21T14:57:22;9.30;99.90
58983;DHT22;44771;49.982;8.560;2023-11-21T15:02:26;9.30;99.90
58983;DHT22;44771;49.982;8.560;2023-11-21T15:07:28;9.20;99.90
58983;DHT22;44771;49.982;8.560;2023-11-21T15:12:30;9.10;99.90
58983;DHT22;44771;49.982;8.560;2023-11-21T15:17:33;9.00;99.90
58983;DHT22;44771;49.982;8.560;2023-11-21T15:22:35;9.00;99.90
58983;DHT22;44771;49.982;8.560;2023-11-21T15:27:37;9.00;99.90
58983;DHT22;44771;49.982;8.560;2023-11-21T15:32:41;9.00;99.90
58983;DHT22;44771;49.982;8.560;2023-11-21T15:37:48;9.00;99.90
58983;DHT22;44771;49.982;8.560;2023-11-21T15:42:51;8.90;99.90
58983;DHT22;44771;49.982;8.560;2023-11-21T15:47:54;8.90;99.90
58983;DHT22;44771;49.982;8.560;2023-11-21T15:52:56;8.90;99.90
58983;DHT22;44771;49.982;8.560;2023-11-21T15:57:59;8.70;99.90
58983;DHT22;44771;49.982;8.560;2023-11-21T16:03:02;8.80;99.90
58983;DHT22;44771;49.982;8.560;2023-11-21T16:08:04;8.60;99.90
58983;DHT22;44771;49.982;8.560;2023-11-21T16:13:06;8.60;99.90
58983;DHT22;44771;49.982;8.560;2023-11-21T16:18:10;8.60;99.90
58983;DHT22;44771;49.982;8.560;2023-11-21T16:23:12;8.50;99.90
58983;DHT22;44771;49.982;8.560;2023-11-21T16:28:14;8.40;99.90
58983;DHT22;44771;49.982;8.560;2023-11-21T16:33:17;8.40;99.90
58983;DHT22;44771;49.982;8.560;2023-11-21T16:38:19;8.40;99.90
58983;DHT22;44771;49.982;8.560;2023-11-21T16:43:21;8.40;99.90
58983;DHT22;44771;49.982;8.560;2023-11-21T16:48:24;8.40;99.90
58983;DHT22;44771;49.982;8.560;2023-11-21T16:53:26;8.40;99.90
58983;DHT22;44771;49.982;8.560;2023-11-21T16:58:28;8.30;99.90
58983;DHT22;44771;49.982;8.560;2023-11-21T17:03:31;8.30;99.90
58983;DHT22;44771;49.982;8.560;2023-11-21T17:08:33;8.30;99.90
58983;DHT22;44771;49.982;8.560;2023-11-21T17:13:35;8.30;99.90
58983;DHT22;44771;49.982;8.560;2023-11-21T17:18:38;8.40;99.90
58983;DHT22;44771;49.982;8.560;2023-11-21T17:23:40;8.40;99.90
58983;DHT22;44771;49.982;8.560;2023-11-21T17:28:42;8.40;99.90
58983;DHT22;44771;49.982;8.560;2023-11-21T17:33:48;8.40;99.90
58983;DHT22;44771;49.982;8.560;2023-11-21T17:38:49;8.40;99.90
58983;DHT22;44771;49.982;8.560;2023-11-21T17:43:51;8.30;99.90
58983;DHT22;44771;49.982;8.560;2023-11-21T17:48:55;8.30;99.90
58983;DHT22;44771;49.982;8.560;2023-11-21T17:53:57;8.30;99.90
58983;DHT22;44771;49.982;8.560;2023-11-21T17:58:58;8.30;99.90
58983;DHT22;44771;49.982;8.560;2023-11-21T18:04:02;8.30;99.90
58983;DHT22;44771;49.982;8.560;2023-11-21T18:09:04;8.20;99.90
58983;DHT22;44771;49.982;8.560;2023-11-21T18:14:06;8.20;99.90
58983;DHT22;44771;49.982;8.560;2023-11-21T18:19:09;8.50;99.90
58983;DHT22;44771;49.982;8.560;2023-11-21T18:24:11;8.50;99.90
58983;DHT22;44771;49.982;8.560;2023-11-21T18:29:13;8.50;99.90
58983;DHT22;44771;49.982;8.560;2023-11-21T18:34:17;8.50;99.90
58983;DHT22;44771;49.982;8.560;2023-11-21T18:39:19;8.60;99.90
58983;DHT22;44771;49.982;8.560;2023-11-21T18:44:20;8.60;99.90
58983;DHT22;44771;49.982;8.560;2023-11-21T18:49:24;8.60;99.90
58983;DHT22;44771;49.982;8.560;2023-11-21T18:54:26;8.60;99.90
58983;DHT22;44771;49.982;8.560;2023-11-21T18:59:28;8.70;99.90
58983;DHT22;44771;49.982;8.560;2023-11-21T19:04:33;8.70;99.90
58983;DHT22;44771;49.982;8.560;2023-11-21T19:09:35;8.60;99.90
58983;DHT22;44771;49.982;8.560;2023-11-21T19:14:37;8.30;99.90
58983;DHT22;44771;49.982;8.560;2023-11-21T19:19:40;8.00;99.90
58983;DHT22;44771;49.982;8.560;2023-11-21T19:24:42;7.80;99.90
58983;DHT22;44771;49.982;8.560;2023-11-21T19:29:45;7.70;99.90
58983;DHT22;44771;49.982;8.560;2023-11-21T19:34:48;7.60;99.90
58983;DHT22;44771;49.982;8.560;2023-11-21T19:39:50;7.30;99.90
58983;DHT22;44771;49.982;8.560;2023-11-21T19:44:52;6.90;99.90
58983;DHT22;44771;49.982;8.560;2023-11-21T19:49:55;6.80;99.90
58983;DHT22;44771;49.982;8.560;2023-11-21T19:54:57;6.70;99.90
58983;DHT22;44771;49.982;8.560;2023-11-21T19:59:59;6.70;99.90
58983;DHT22;44771;49.982;8.560;2023-11-21T20:05:05;6.70;99.90
58983;DHT22;44771;49.982;8.560;2023-11-21T20:10:07;6.60;99.90
58983;DHT22;44771;49.982;8.560;2023-11-21T20:15:10;6.60;99.90
58983;DHT22;44771;49.982;8.560;2023-11-21T20:20:14;6.60;99.90
58983;DHT22;44771;49.982;8.560;2023-11-21T20:25:16;6.60;99.90
58983;DHT22;44771;49.982;8.560;2023-11-21T20:30:18;6.60;99.90
58983;DHT22;44771;49.982;8.560;2023-11-21T20:35:21;6.50;99.90
58983;DHT22;44771;49.982;8.560;2023-11-21T20:40:23;6.50;99.90
58983;DHT22;44771;49.982;8.560;2023-11-21T20:45:27;6.40;99.90
58983;DHT22;44771;49.982;8.560;2023-11-21T20:50:33;6.30;99.90
58983;DHT22;44771;49.982;8.560;2023-11-21T20:55:37;6.20;99.90
58983;DHT22;44771;49.982;8.560;2023-11-21T21:00:39;6.10;99.90
58983;DHT22;44771;49.982;8.560;2023-11-21T21:05:42;6.00;99.90
58983;DHT22;44771;49.982;8.560;2023-11-21T21:10:44;6.00;99.90
58983;DHT22;44771;49.982;8.560;2023-11-21T21:15:46;6.00;99.90
58983;DHT22;44771;49.982;8.560;2023-11-21T21:20:49;6.00;99.90
58983;DHT22;44771;49.982;8.560;2023-11-21T21:25:51;5.90;99.90
58983;DHT22;44771;49.982;8.560;2023-11-21T21:30:53;5.90;99.90
58983;DHT22;44771;49.982;8.560;2023-11-21T21:35:58;5.90;99.90
58983;DHT22;44771;49.982;8.560;2023-11-21T21:41:00;5.80;99.90
58983;DHT22;44771;49.982;8.560;2023-11-21T21:46:05;5.80;99.90
58983;DHT22;44771;49.982;8.560;2023-11-21T21:51:15;5.80;99.90
58983;DHT22;44771;49.982;8.560;2023-11-21T21:56:19;5.90;99.90
58983;DHT22;44771;49.982;8.560;2023-11-21T22:01:21;5.80;99.90
58983;DHT22;44771;49.982;8.560;2023-11-21T22:06:24;5.60;99.90
58983;DHT22;44771;49.982;8.560;2023-11-21T22:11:26;5.40;99.90
58983;DHT22;44771;49.982;8.560;2023-11-21T22:16:29;5.20;99.90
58983;DHT22;44771;49.982;8.560;2023-11-21T22:21:32;5.10;99.90
58983;DHT22;44771;49.982;8.560;2023-11-21T22:26:35;5.10;99.90
58983;DHT22;44771;49.982;8.560;2023-11-21T22:31:40;5.00;99.90
58983;DHT22;44771;49.982;8.560;2023-11-21T22:36:43;4.90;99.90
58983;DHT22;44771;49.982;8.560;2023-11-21T22:41:45;4.80;99.90
58983;DHT22;44771;49.982;8.560;2023-11-21T22:46:47;4.70;99.90
58983;DHT22;44771;49.982;8.560;2023-11-21T22:51:50;4.60;99.90
58983;DHT22;44771;49.982;8.560;2023-11-21T22:56:52;4.50;99.90
58983;DHT22;44771;49.982;8.560;2023-11-21T23:01:54;4.50;99.90
58983;DHT22;44771;49.982;8.560;2023-11-21T23:06:57;4.50;99.90
58983;DHT22;44771;49.982;8.560;2023-11-21T23:11:59;4.50;99.90
58983;DHT22;44771;49.982;8.560;2023-11-21T23:17:01;4.50;99.90
58983;DHT22;44771;49.982;8.560;2023-11-21T23:22:04;4.40;99.90
58983;DHT22;44771;49.982;8.560;2023-11-21T23:27:06;4.30;99.90
58983;DHT22;44771;49.982;8.560;2023-11-21T23:32:08;4.30;99.90
58983;DHT22;44771;49.982;8.560;2023-11-21T23:37:11;4.30;99.90
58983;DHT22;44771;49.982;8.560;2023-11-21T23:42:13;4.10;99.90
58983;DHT22;44771;49.982;8.560;2023-11-21T23:47:14;4.00;99.90
58983;DHT22;44771;49.982;8.560;2023-11-21T23:52:18;3.90;99.90
58983;DHT22;44771;49.982;8.560;2023-11-21T23:57:20;3.80;99.90
